Gunnar Thorson — OUDU — position and weather

sailwx.info

Track history (hours):
 
Tides and Currents Weather Stations Pressure Air Temp Water Temp Dewpoint Dewpoint Depression Visibility Wind Speed Wind Dir Waves Ship Positions

Oceanographic research ship Gunnar Thorson (Denmark)

Detailed information on ship capabilities available from University of Delaware's Ocean Information Center.

Last reported at 2014-Aug-29 10:32 UTC. Time now 2014-Sep-01 11:42 UTC.
Position N 57°26' E 010°32'.

Length 56 m; draft 4.5 m.

Type: Military. MMSI: 219263000.

Date/timePositionNaut miles runAvg speedWind from/ knotsBaromVisibWave heightAir tempDewpointWater temp
2014-Aug-29 10:32N 57°26' E 010°32'4 0.7
2014-Aug-29 05:22N 57°23' E 010°38'4 3.2
2014-Aug-29 04:12N 57°20' E 010°40'11 6.5
2014-Aug-29 02:27N 57°09' E 010°46'6 6.5
2014-Aug-29 01:31N 57°03' E 010°50'6 6.2
2014-Aug-29 00:30N 56°57' E 010°52'7 7.1
2014-Aug-28 23:34N 56°52' E 010°44'8 8.0
2014-Aug-28 22:32N 56°55' E 010°30'9 8.9
2014-Aug-28 21:34N 56°59' E 010°16'9 8.9
2014-Aug-28 20:33N 57°04' E 010°03'4 3.8
2014-Aug-28 19:31N 57°03' E 009°56'0 0.0
2014-Aug-28 18:31N 57°03' E 009°56'0 0.0
2014-Aug-28 17:32N 57°03' E 009°56'0 0.0
2014-Aug-28 16:33N 57°03' E 009°56'0 0.0
2014-Aug-28 15:30N 57°03' E 009°56'0 0.0
2014-Aug-28 14:31N 57°03' E 009°56'0 0.0
2014-Aug-28 13:32N 57°03' E 009°56'0 0.0
2014-Aug-28 12:29N 57°03' E 009°56'0 0.0
2014-Aug-28 11:33N 57°03' E 009°56'0 0.0
2014-Aug-28 10:31N 57°03' E 009°56'5 4.9
2014-Aug-28 09:33N 57°03' E 010°04'9 9.3
2014-Aug-28 08:32N 56°59' E 010°20'6 1.4
2014-Aug-28 04:23N 56°56' E 010°29'0 0.0
2014-Aug-28 03:24N 56°56' E 010°29'0 0.0
2014-Aug-28 02:25N 56°56' E 010°29'0 0.0
2014-Aug-28 01:31N 56°56' E 010°29'0 0.0
2014-Aug-28 00:20N 56°56' E 010°29'0 0.0
2014-Aug-27 23:32N 56°56' E 010°29'0 0.0
2014-Aug-27 22:33N 56°56' E 010°29'0 0.0
2014-Aug-27 21:25N 56°56' E 010°29'2 2.1
2014-Aug-27 20:33N 56°55' E 010°30'1110.7
2014-Aug-27 19:31N 56°49' E 010°48'1111.3
2014-Aug-27 18:33N 56°44' E 011°06'1111.4
2014-Aug-27 17:32N 56°39' E 011°24'8 7.3
2014-Aug-27 16:30N 56°42' E 011°37'4 3.9
2014-Aug-27 15:32N 56°43' E 011°43'4 4.2
2014-Aug-27 14:33N 56°46' E 011°49'0 0.2
2014-Aug-27 13:33N 56°46' E 011°49'0 0.1
2014-Aug-27 12:33N 56°46' E 011°49'3 2.8
2014-Aug-27 11:31N 56°44' E 011°45'3 3.5
2014-Aug-27 10:33N 56°43' E 011°39'4 3.7
2014-Aug-27 09:33N 56°39' E 011°36'1110.4
2014-Aug-27 08:26N 56°28' E 011°33'1110.5
2014-Aug-27 07:26N 56°18' E 011°25'  
2014-Aug-21 08:26N 55°13' E 009°47'910.3
2014-Aug-21 07:33N 55°05' E 009°39'8 8.1
2014-Aug-21 06:33N 54°58' E 009°45'3 3.0
2014-Aug-21 05:34N 54°55' E 009°47'0 0.0
2014-Aug-21 04:25N 54°55' E 009°47'0 0.0
2014-Aug-21 03:20N 54°55' E 009°47'0 0.0
2014-Aug-21 02:33N 54°55' E 009°47'0 0.0
2014-Aug-21 01:30N 54°55' E 009°47'0 0.0
2014-Aug-21 00:28N 54°55' E 009°47'0 0.0
2014-Aug-20 23:29N 54°55' E 009°47'0 0.0
2014-Aug-20 22:26N 54°55' E 009°47'0 0.0
2014-Aug-20 21:33N 54°55' E 009°47'0 0.0
2014-Aug-20 20:22N 54°55' E 009°47'0 0.0
2014-Aug-20 19:31N 54°55' E 009°47'0 0.0
2014-Aug-20 18:32N 54°55' E 009°47'0 0.0
2014-Aug-20 17:30N 54°55' E 009°47'0 0.0
2014-Aug-20 16:27N 54°55' E 009°47'0 0.0
2014-Aug-20 15:25N 54°55' E 009°47'0 0.0
2014-Aug-20 14:23N 54°55' E 009°47'0 0.0
2014-Aug-20 13:32N 54°55' E 009°47'0 0.0
2014-Aug-20 12:33N 54°55' E 009°47'0 0.0
2014-Aug-20 11:31N 54°55' E 009°47'4 4.3
2014-Aug-20 10:33N 54°59' E 009°45'7 7.3
2014-Aug-20 09:34N 55°06' E 009°41'1110.2
2014-Aug-20 08:31N 55°15' E 009°48'132 6.9
2014-Aug-19 13:22N 57°25' E 010°38'  
Track history (hours):
 
Tides and Currents Weather Stations Pressure Air Temp Water Temp Dewpoint Dewpoint Depression Visibility Wind Speed Wind Dir Waves Ship Positions

Oceanographic research ship Gunnar Thorson (Denmark)

Detailed information on ship capabilities available from University of Delaware's Ocean Information Center.

Last reported at 2014-Aug-29 10:32 UTC. Time now 2014-Sep-01 11:42 UTC.
Position N 57°26' E 010°32'.

Length 56 m; draft 4.5 m.

Type: Military. MMSI: 219263000.

Date/timePositionNaut miles runAvg speedWind from/ knotsBaromVisibWave heightAir tempDewpointWater temp
2014-Aug-29 10:32N 57°26' E 010°32'4 0.7
2014-Aug-29 05:22N 57°23' E 010°38'4 3.2
2014-Aug-29 04:12N 57°20' E 010°40'11 6.5
2014-Aug-29 02:27N 57°09' E 010°46'6 6.5
2014-Aug-29 01:31N 57°03' E 010°50'6 6.2
2014-Aug-29 00:30N 56°57' E 010°52'7 7.1
2014-Aug-28 23:34N 56°52' E 010°44'8 8.0
2014-Aug-28 22:32N 56°55' E 010°30'9 8.9
2014-Aug-28 21:34N 56°59' E 010°16'9 8.9
2014-Aug-28 20:33N 57°04' E 010°03'4 3.8
2014-Aug-28 19:31N 57°03' E 009°56'0 0.0
2014-Aug-28 18:31N 57°03' E 009°56'0 0.0
2014-Aug-28 17:32N 57°03' E 009°56'0 0.0
2014-Aug-28 16:33N 57°03' E 009°56'0 0.0
2014-Aug-28 15:30N 57°03' E 009°56'0 0.0
2014-Aug-28 14:31N 57°03' E 009°56'0 0.0
2014-Aug-28 13:32N 57°03' E 009°56'0 0.0
2014-Aug-28 12:29N 57°03' E 009°56'0 0.0
2014-Aug-28 11:33N 57°03' E 009°56'0 0.0
2014-Aug-28 10:31N 57°03' E 009°56'5 4.9
2014-Aug-28 09:33N 57°03' E 010°04'9 9.3
2014-Aug-28 08:32N 56°59' E 010°20'6 1.4
2014-Aug-28 04:23N 56°56' E 010°29'0 0.0
2014-Aug-28 03:24N 56°56' E 010°29'0 0.0
2014-Aug-28 02:25N 56°56' E 010°29'0 0.0
2014-Aug-28 01:31N 56°56' E 010°29'0 0.0
2014-Aug-28 00:20N 56°56' E 010°29'0 0.0
2014-Aug-27 23:32N 56°56' E 010°29'0 0.0
2014-Aug-27 22:33N 56°56' E 010°29'0 0.0
2014-Aug-27 21:25N 56°56' E 010°29'2 2.1
2014-Aug-27 20:33N 56°55' E 010°30'1110.7
2014-Aug-27 19:31N 56°49' E 010°48'1111.3
2014-Aug-27 18:33N 56°44' E 011°06'1111.4
2014-Aug-27 17:32N 56°39' E 011°24'8 7.3
2014-Aug-27 16:30N 56°42' E 011°37'4 3.9
2014-Aug-27 15:32N 56°43' E 011°43'4 4.2
2014-Aug-27 14:33N 56°46' E 011°49'0 0.2
2014-Aug-27 13:33N 56°46' E 011°49'0 0.1
2014-Aug-27 12:33N 56°46' E 011°49'3 2.8
2014-Aug-27 11:31N 56°44' E 011°45'3 3.5
2014-Aug-27 10:33N 56°43' E 011°39'4 3.7
2014-Aug-27 09:33N 56°39' E 011°36'1110.4
2014-Aug-27 08:26N 56°28' E 011°33'1110.5
2014-Aug-27 07:26N 56°18' E 011°25'  
2014-Aug-21 08:26N 55°13' E 009°47'910.3
2014-Aug-21 07:33N 55°05' E 009°39'8 8.1
2014-Aug-21 06:33N 54°58' E 009°45'3 3.0
2014-Aug-21 05:34N 54°55' E 009°47'0 0.0
2014-Aug-21 04:25N 54°55' E 009°47'0 0.0
2014-Aug-21 03:20N 54°55' E 009°47'0 0.0
2014-Aug-21 02:33N 54°55' E 009°47'0 0.0
2014-Aug-21 01:30N 54°55' E 009°47'0 0.0
2014-Aug-21 00:28N 54°55' E 009°47'0 0.0
2014-Aug-20 23:29N 54°55' E 009°47'0 0.0
2014-Aug-20 22:26N 54°55' E 009°47'0 0.0
2014-Aug-20 21:33N 54°55' E 009°47'0 0.0
2014-Aug-20 20:22N 54°55' E 009°47'0 0.0
2014-Aug-20 19:31N 54°55' E 009°47'0 0.0
2014-Aug-20 18:32N 54°55' E 009°47'0 0.0
2014-Aug-20 17:30N 54°55' E 009°47'0 0.0
2014-Aug-20 16:27N 54°55' E 009°47'0 0.0
2014-Aug-20 15:25N 54°55' E 009°47'0 0.0
2014-Aug-20 14:23N 54°55' E 009°47'0 0.0
2014-Aug-20 13:32N 54°55' E 009°47'0 0.0
2014-Aug-20 12:33N 54°55' E 009°47'0 0.0
2014-Aug-20 11:31N 54°55' E 009°47'4 4.3
2014-Aug-20 10:33N 54°59' E 009°45'7 7.3
2014-Aug-20 09:34N 55°06' E 009°41'1110.2
2014-Aug-20 08:31N 55°15' E 009°48'132 6.9
2014-Aug-19 13:22N 57°25' E 010°38'  

Dump ship's entire track history